• Join FlightAware (Why Join?)
  • Login
  • US Flag 
08:36AM EDT


 

Airport Tracker/Info


-or-


 

Live Flight TrackerFlight Track Log ✈ RPA3153 ✈ 12-Jul-2013 ✈ KBTV - KPHL

Flight Track Log - Related Links

Times and Time Zones

All times are in EDT time to prevent confusion due to time zone crossing. See the RPA3153 flight status page for this flight to view local times or setup timezone preferences in your user account.

Time Position Orientation Groundspeed Altitude Reporting Facility
EDT Latitude Longitude Course Direction KTS MPH feet Rate Location/Type
07:20AM 44.3694 -73.1517 195° South 259 298 4,400  Level Boston Center
07:21AM 44.1694 -73.2615 195° South  Level FlightAware Approximate
07:21AM 44.2986 -73.1825 197° South 288 331 8,200  Level Boston Center
07:22AM 44.0697 -73.2989 195° South  Level FlightAware Approximate
07:22AM 44.2211 -73.2164 197° South 286 329 11,000  Level Boston Center
07:23AM 43.9694 -73.3325 194° South  Level FlightAware Approximate
07:23AM 44.1458 -73.2850 213° Southwest 303 349 13,300  Level Boston Center
07:24AM 43.8694 -73.3678 195° South  Level FlightAware Approximate
07:24AM 44.0597 -73.3586 212° Southwest 344 396 15,800  Level Boston Center
07:25AM 43.7698 -73.4052 195° South  Level FlightAware Approximate
07:25AM 43.9758 -73.4325 212° Southwest 359 413 17,800  Level Boston Center
07:26AM 43.6702 -73.4425 195° South  Level FlightAware Approximate
07:26AM 43.8875 -73.5117 213° Southwest 374 430 20,100  Level Boston Center
07:27AM 43.7992 -73.5878 212° Southwest 374 430 22,000 1,560 Climbing Boston Center
07:29AM 43.6942 -73.6778 212° Southwest 395 455 23,900 780 Climbing Boston Center
07:30AM 43.5636 -73.7897 212° Southwest 417 480 24,000  Climbing Boston Center
07:31AM 43.4606 -73.8761 211° Southwest 429 494 24,000  Level Boston Center
07:32AM 43.3719 -73.9567 213° Southwest 434 499 24,000  Level Boston Center
07:33AM 43.2708 -74.0397 211° Southwest 434 499 24,000  Level Boston Center
07:34AM 43.1714 -74.1283 213° Southwest 434 499 24,000  Level Boston Center
07:35AM 43.0639 -74.2219 212° Southwest 434 499 24,000  Level Boston Center
07:36AM 42.9603 -74.3069 211° Southwest 434 499 24,000  Level Boston Center
07:37AM 42.8397 -74.4108 212° Southwest 434 499 24,000  Level Boston Center
07:38AM 42.7214 -74.5089 211° Southwest 434 499 24,000  Level Boston Center
07:39AM 42.6197 -74.5931 211° Southwest 434 499 24,000  Level Boston Center
07:40AM 42.5181 -74.6767 211° Southwest 434 499 24,000  Level Boston Center
07:41AM 42.4161 -74.7631 212° Southwest 434 499 24,000  Level Boston Center
07:42AM 42.3186 -74.8464 212° Southwest 434 499 24,000 -900 Level Boston Center
07:44AM 42.1011 -75.0222 211° Southwest 445 512 21,300 -1,380 Descending New York Center
07:45AM 42.0089 -75.0972 211° Southwest 423 487 19,700 -1,200 Descending New York Center
07:46AM 41.9167 -75.1747 212° Southwest 400 460 19,000 -540 Descending New York Center
07:47AM 41.8264 -75.2467 211° Southwest 394 453 18,700 -600 Descending New York Center
07:48AM 41.7383 -75.3186 211° Southwest 389 448 17,800 -1,140 Descending New York Center
07:49AM 41.6611 -75.3828 212° Southwest 374 430 16,500 -1,620 Descending New York Center
07:50AM 41.5728 -75.4542 211° Southwest 379 436 14,600 -2,040 Descending New York Center
07:51AM 41.4803 -75.5281 211° Southwest 373 429 12,500 -1,380 Descending New York Center
07:52AM 41.3967 -75.5914 210° Southwest 361 415 12,000 -300 Descending New York Center
07:53AM 41.3103 -75.6597 211° Southwest 361 415 12,000  Level New York Center
07:54AM 41.2258 -75.6867 193° South 339 390 12,000  Level New York Center
07:55AM 41.1322 -75.6883 181° South 339 390 12,000  Level New York Center
07:56AM 41.0239 -75.6886 180° South 354 407 12,000  Level New York Center
07:57AM 40.9258 -75.6869 179° South 360 414 12,000  Level New York Center
07:58AM 40.8258 -75.6881 180° South 360 414 12,000  Level New York Center
07:59AM 40.7464 -75.6467 158° South 348 400 12,000 -300 Level New York Center
08:00AM 40.6533 -75.5800 151° Southeast 348 400 11,400 -720 Descending New York Center
08:01AM 40.5703 -75.5194 151° Southeast 348 400 10,600 -720 Descending New York Center
08:02AM 40.4953 -75.4650 151° Southeast 329 379 10,000 -300 Descending New York Center
08:03AM 40.4283 -75.4197 153° Southeast 314 361 10,000 -600 Level New York Center
08:04AM 40.3447 -75.3706 156° South 304 350 8,900 -1,080 Descending New York Center
08:05AM 40.2714 -75.3303 157° South 294 338 7,900 -1,080 Descending New York Center
08:06AM 40.1931 -75.3603 196° South 278 320 6,900 -540 Descending New York Center
08:07AM 40.1294 -75.3914 201° Southwest 284 327 6,900  Level New York Center
08:08AM 40.0614 -75.4194 198° South 254 292 6,900  Level New York Center
08:09AM 40.0039 -75.4022 167° South 233 268 6,900 -420 Level New York Center
08:10AM 39.9414 -75.4006 179° South 221 254 6,100 -780 Descending New York Center
08:11AM 39.9178 -75.4694 246° West 177 204 5,400 -660 Descending New York Center
08:12AM 39.8961 -75.5439 249° West 199 229 4,800 -780 Descending New York Center
08:13AM 39.8667 -75.6167 242° Southwest 219 252 3,900 -480 Descending Philadelphia TRACON
08:14AM 39.8167 -75.6333 194° South 196 226 3,900 -360 Level Philadelphia TRACON
08:15AM 39.8000 -75.5667 108° East 170 196 3,200 -480 Descending Philadelphia TRACON
08:16AM 39.8167 -75.5000 72° East 168 193 2,900 -300 Descending Philadelphia TRACON
08:17AM 39.8333 -75.4500 67° East 168 193 2,600 -300 Descending Philadelphia TRACON